Portada
METAR-TAF:

METAR-TAF

Aeroports :

Penn Valley Airport

Selinsgrove, Pennsilvània, Estats Units d'Amèrica

latitud: 40-49-09N, longitud: 076-51-58W, altitud: 137 m

Observació

L'informe es va fer fa 1 hora i 15 minuts, a les 16:53 UTC
Vent 3 kt amb direcció variable
Temperatura 2°C
Humitat 44%
Pressió 1025 hPa
Visibilitat: 16.1 km
Cel cobert a una alçada de 4000 ft

METAR: KSEG 171653Z AUTO VRB03KT 10SM OVC040 02/M09 A3027 RMK AO2 SLP255 T00171094

Hora: 13:08 (18:08 UTC)


TAF: manca

Observacions i pronòstics meteorològics de més de 4000 aeroports (METAR i TAF).

Les estacions disponibles són els punts grocs i vermells al mapa.

Posi el ratolí al punt desitjat per veure el nom de l'estació.

Feu clic per veure les observacions i els pronòstics meteorològics.

Per canviar el mapa: feu clic els botons verds amb una creu de color negre per apropar; al botó verd amb un guió per allunyar la imatge; o en les fletxes verdes per a mapes adjacents.


METAR-TAF: